createdAt,value
2016-12-08T00:00:05.239Z,931.27
2016-12-08T00:01:15.982Z,931.34
2016-12-08T00:02:41.220Z,931.34
2016-12-08T00:03:52.418Z,931.34
2016-12-08T00:05:02.917Z,931.34
2016-12-08T00:06:13.425Z,931.36
2016-12-08T00:07:23.918Z,931.34
2016-12-08T00:09:59.454Z,931.39
2016-12-08T00:11:09.967Z,931.33
2016-12-08T00:12:20.475Z,931.28
2016-12-08T00:13:30.988Z,931.26
2016-12-08T00:14:41.689Z,931.27
2016-12-08T00:15:52.183Z,931.2
2016-12-08T00:17:17.232Z,931.19
2016-12-08T00:18:27.751Z,931.14
2016-12-08T00:19:38.261Z,931.12
2016-12-08T00:20:48.962Z,931.12
2016-12-08T00:21:59.472Z,931.13
2016-12-08T00:23:09.977Z,931.16
2016-12-08T00:24:20.686Z,931.15
2016-12-08T00:25:31.703Z,931.21
2016-12-08T00:26:42.217Z,931.18
2016-12-08T00:27:52.723Z,931.15
2016-12-08T00:29:03.231Z,931.15
2016-12-08T00:30:28.467Z,931.15
2016-12-08T00:31:38.971Z,931.13
2016-12-08T00:32:49.467Z,931.11
2016-12-08T00:33:59.966Z,931.1
2016-12-08T00:35:10.663Z,931.09
2016-12-08T00:36:21.042Z,931.11
2016-12-08T00:37:31.437Z,931.07
2016-12-08T00:38:41.825Z,931.05
2016-12-08T00:39:52.202Z,931.02
2016-12-08T00:41:02.979Z,931.03
2016-12-08T00:42:13.368Z,931.01
2016-12-08T00:43:23.743Z,931.02
2016-12-08T00:44:34.138Z,930.98
2016-12-08T00:45:44.521Z,930.93
2016-12-08T00:47:09.667Z,930.98
2016-12-08T00:49:44.987Z,930.89
2016-12-08T00:50:55.369Z,930.91
2016-12-08T00:52:06.230Z,930.91
2016-12-08T00:53:16.606Z,930.9
2016-12-08T00:54:26.996Z,930.89
2016-12-08T00:55:37.786Z,930.91
2016-12-08T00:56:48.187Z,930.85
2016-12-08T00:59:23.748Z,930.88
2016-12-08T01:00:34.140Z,930.85
2016-12-08T01:01:44.727Z,930.86
2016-12-08T01:02:55.114Z,930.87
2016-12-08T01:04:05.701Z,930.94
2016-12-08T01:05:16.094Z,930.97
2016-12-08T01:06:26.878Z,931.02
2016-12-08T01:07:37.279Z,931.05
2016-12-08T01:08:47.675Z,931.05
2016-12-08T01:09:58.057Z,931.05
2016-12-08T01:11:08.502Z,931.08
2016-12-08T01:12:18.911Z,931.08
2016-12-08T01:13:29.315Z,931.07
2016-12-08T01:14:40.105Z,931.11
2016-12-08T01:15:50.511Z,931.1
2016-12-08T01:17:00.891Z,931.12
2016-12-08T01:18:11.331Z,931.12
2016-12-08T01:19:21.731Z,931.15
2016-12-08T01:20:32.800Z,931.15
2016-12-08T01:21:43.195Z,931.16
2016-12-08T01:22:53.596Z,931.15
2016-12-08T01:24:03.985Z,931.14
2016-12-08T01:25:14.381Z,931.08
2016-12-08T01:26:24.971Z,931.11
2016-12-08T01:27:35.386Z,931.11
2016-12-08T01:28:45.806Z,931.14
2016-12-08T01:29:56.215Z,931.16
2016-12-08T01:31:06.628Z,931.19
2016-12-08T01:32:17.029Z,931.2
2016-12-08T01:33:27.433Z,931.18
2016-12-08T01:34:37.848Z,931.14
2016-12-08T01:35:48.243Z,931.16
2016-12-08T01:36:58.647Z,931.11
2016-12-08T01:38:09.151Z,931.14
2016-12-08T01:39:19.559Z,931.09
2016-12-08T01:40:30.447Z,931.13
2016-12-08T01:41:40.851Z,931.13
2016-12-08T01:42:51.263Z,931.17
2016-12-08T01:44:02.347Z,931.17
2016-12-08T01:45:12.758Z,931.2
2016-12-08T01:46:23.166Z,931.21
2016-12-08T01:47:33.576Z,931.22
2016-12-08T01:48:43.982Z,931.22
2016-12-08T01:49:54.579Z,931.23
2016-12-08T01:51:04.981Z,931.25
2016-12-08T01:52:15.885Z,931.27
2016-12-08T01:53:26.290Z,931.25
2016-12-08T01:54:36.684Z,931.25
2016-12-08T01:55:47.284Z,931.23
2016-12-08T01:56:57.678Z,931.21
2016-12-08T01:58:08.314Z,931.21
2016-12-08T01:59:33.254Z,931.22
2016-12-08T02:00:43.638Z,931.19
2016-12-08T02:01:54.039Z,931.19
2016-12-08T02:03:04.432Z,931.18
2016-12-08T02:04:14.819Z,931.11
2016-12-08T02:05:25.205Z,931.09
2016-12-08T02:06:35.800Z,931.05
2016-12-08T02:07:46.200Z,931.08
2016-12-08T02:08:56.592Z,931.09
2016-12-08T02:10:06.990Z,931.07
2016-12-08T02:11:17.392Z,931.07
2016-12-08T02:12:27.782Z,931.07
2016-12-08T02:13:52.759Z,931.03
2016-12-08T02:15:03.652Z,931.02
2016-12-08T02:16:14.050Z,931.03
2016-12-08T02:17:24.442Z,931.03
2016-12-08T02:18:35.215Z,931.02
2016-12-08T02:19:45.625Z,930.98
2016-12-08T02:21:25.134Z,930.95
2016-12-08T02:22:35.528Z,930.93
2016-12-08T02:23:45.925Z,930.97
2016-12-08T02:24:56.305Z,930.94
2016-12-08T02:26:06.730Z,930.97
2016-12-08T02:27:17.144Z,930.95
2016-12-08T02:28:27.535Z,930.93
2016-12-08T02:29:37.931Z,930.93
2016-12-08T02:30:48.323Z,930.95
2016-12-08T02:31:58.715Z,930.94
2016-12-08T02:33:09.092Z,930.93
2016-12-08T02:34:19.577Z,930.88
2016-12-08T02:35:29.959Z,930.88
2016-12-08T02:36:40.351Z,930.84
2016-12-08T02:37:50.767Z,930.82
2016-12-08T02:39:15.720Z,930.77
2016-12-08T02:40:26.301Z,930.73
2016-12-08T02:41:36.686Z,930.75
2016-12-08T02:42:47.086Z,930.7
2016-12-08T02:43:57.484Z,930.69
2016-12-08T02:45:08.079Z,930.73
2016-12-08T02:46:18.457Z,930.71
2016-12-08T02:47:28.842Z,930.7
2016-12-08T02:48:39.247Z,930.7
2016-12-08T02:49:49.628Z,930.67
2016-12-08T02:51:00.023Z,930.69
2016-12-08T02:52:10.407Z,930.7
2016-12-08T02:53:20.794Z,930.66
2016-12-08T02:54:31.196Z,930.66
2016-12-08T02:55:41.580Z,930.64
2016-12-08T02:56:52.172Z,930.59
2016-12-08T02:58:02.571Z,930.59
2016-12-08T02:59:27.500Z,930.57
2016-12-08T03:00:52.444Z,930.56
2016-12-08T03:02:02.822Z,930.53
2016-12-08T03:03:13.227Z,930.54
2016-12-08T03:04:23.623Z,930.46
2016-12-08T03:05:34.209Z,930.48
2016-12-08T03:06:44.608Z,930.41
2016-12-08T03:07:55.191Z,930.42
2016-12-08T03:09:05.583Z,930.44
2016-12-08T03:10:15.977Z,930.4
2016-12-08T03:11:26.595Z,930.43
2016-12-08T03:12:36.994Z,930.45
2016-12-08T03:13:47.493Z,930.42
2016-12-08T03:15:12.441Z,930.44
2016-12-08T03:16:23.326Z,930.41
2016-12-08T03:17:33.721Z,930.4
2016-12-08T03:18:44.110Z,930.39
2016-12-08T03:19:55.091Z,930.39
2016-12-08T03:21:05.475Z,930.35
2016-12-08T03:22:15.854Z,930.32
2016-12-08T03:23:26.233Z,930.31
2016-12-08T03:24:51.371Z,930.3
2016-12-08T03:26:01.762Z,930.32
2016-12-08T03:27:12.140Z,930.36
2016-12-08T03:28:22.541Z,930.39
2016-12-08T03:29:33.106Z,930.39
2016-12-08T03:30:43.524Z,930.38
2016-12-08T03:31:54.311Z,930.38
2016-12-08T03:33:04.711Z,930.35
2016-12-08T03:34:15.216Z,930.34
2016-12-08T03:35:25.922Z,930.38
2016-12-08T03:36:36.675Z,930.34
2016-12-08T03:37:47.407Z,930.36
2016-12-08T03:38:57.908Z,930.36
2016-12-08T03:40:08.391Z,930.36
2016-12-08T03:41:19.116Z,930.31
2016-12-08T03:42:29.626Z,930.27
2016-12-08T03:43:40.120Z,930.24
2016-12-08T03:44:50.819Z,930.22
2016-12-08T03:46:01.488Z,930.22
2016-12-08T03:47:12.385Z,930.16
2016-12-08T03:48:22.885Z,930.17
2016-12-08T03:49:33.879Z,930.13
2016-12-08T03:50:44.391Z,930.09
2016-12-08T03:51:55.110Z,930.06
2016-12-08T03:53:05.619Z,930.06
2016-12-08T03:54:16.145Z,930.04
2016-12-08T03:55:26.645Z,930.02
2016-12-08T03:56:37.156Z,930
2016-12-08T03:57:47.681Z,929.96
2016-12-08T03:58:58.372Z,930.02
2016-12-08T04:00:08.879Z,930.07
2016-12-08T04:01:19.367Z,930.04
2016-12-08T04:02:29.903Z,930.04
2016-12-08T04:03:40.399Z,930.05
2016-12-08T04:04:50.913Z,930.01
2016-12-08T04:06:01.420Z,929.98
2016-12-08T04:07:11.924Z,929.93
2016-12-08T04:08:22.425Z,929.87
2016-12-08T04:09:32.939Z,929.85
2016-12-08T04:10:58.173Z,929.8
2016-12-08T04:12:08.657Z,929.76
2016-12-08T04:14:44.166Z,929.73
2016-12-08T04:15:54.653Z,929.78
2016-12-08T04:17:05.131Z,929.76
2016-12-08T04:18:15.619Z,929.77
2016-12-08T04:19:26.095Z,929.78
2016-12-08T04:20:36.578Z,929.8
2016-12-08T04:21:47.068Z,929.81
2016-12-08T04:22:57.760Z,929.8
2016-12-08T04:24:08.296Z,929.82
2016-12-08T04:25:18.801Z,929.79
2016-12-08T04:26:29.300Z,929.75
2016-12-08T04:27:39.893Z,929.72
2016-12-08T04:28:50.394Z,929.69
2016-12-08T04:30:01.081Z,929.65
2016-12-08T04:31:11.607Z,929.68
2016-12-08T04:32:37.344Z,929.64
2016-12-08T04:34:02.728Z,929.61
2016-12-08T04:35:13.454Z,929.6
2016-12-08T04:36:24.123Z,929.61
2016-12-08T04:37:34.815Z,929.59
2016-12-08T04:38:45.727Z,929.58
2016-12-08T04:39:56.441Z,929.58
2016-12-08T04:41:07.181Z,929.63
2016-12-08T04:42:17.867Z,929.61
2016-12-08T04:43:28.500Z,929.64
2016-12-08T04:44:39.909Z,929.65
2016-12-08T04:45:50.592Z,929.67
2016-12-08T04:47:01.207Z,929.67
2016-12-08T04:48:11.808Z,929.66
2016-12-08T04:49:36.879Z,929.65
2016-12-08T04:50:47.695Z,929.62
2016-12-08T04:51:58.384Z,929.61
2016-12-08T04:53:09.017Z,929.64
2016-12-08T04:54:19.523Z,929.63
2016-12-08T04:55:29.980Z,929.64
2016-12-08T04:56:40.449Z,929.62
2016-12-08T04:57:50.920Z,929.62
2016-12-08T04:59:01.373Z,929.62
2016-12-08T05:00:11.823Z,929.62
2016-12-08T05:01:22.276Z,929.64
2016-12-08T05:02:32.717Z,929.65
2016-12-08T05:03:43.165Z,929.62
2016-12-08T05:04:53.603Z,929.66
2016-12-08T05:06:04.041Z,929.69
2016-12-08T05:07:14.680Z,929.68
2016-12-08T05:08:25.117Z,929.67
2016-12-08T05:09:35.556Z,929.66
2016-12-08T05:12:10.975Z,929.66
2016-12-08T05:13:21.413Z,929.65
2016-12-08T05:14:31.857Z,929.67
2016-12-08T05:15:42.297Z,929.69
2016-12-08T05:16:52.732Z,929.69
2016-12-08T05:18:03.368Z,929.71
2016-12-08T05:19:13.814Z,929.73
2016-12-08T05:20:24.255Z,929.74
2016-12-08T05:21:34.694Z,929.74
2016-12-08T05:22:45.132Z,929.78
2016-12-08T05:23:55.566Z,929.79
2016-12-08T05:25:06.001Z,929.8
2016-12-08T05:26:31.015Z,929.79
2016-12-08T05:27:41.454Z,929.81
2016-12-08T05:29:06.637Z,929.76
2016-12-08T05:30:17.076Z,929.75
2016-12-08T05:31:27.511Z,929.74
2016-12-08T05:32:37.952Z,929.74
2016-12-08T05:33:48.392Z,929.74
2016-12-08T05:34:59.026Z,929.78
2016-12-08T05:36:09.467Z,929.85
2016-12-08T05:37:19.903Z,929.84
2016-12-08T05:38:30.344Z,929.83
2016-12-08T05:39:40.781Z,929.86
2016-12-08T05:40:51.218Z,929.82
2016-12-08T05:42:01.661Z,929.83
2016-12-08T05:43:12.099Z,929.78
2016-12-08T05:44:22.538Z,929.78
2016-12-08T05:45:32.972Z,929.8
2016-12-08T05:46:43.609Z,929.85
2016-12-08T05:47:54.045Z,929.81
2016-12-08T05:49:04.482Z,929.81
2016-12-08T05:50:14.923Z,929.79
2016-12-08T05:51:25.359Z,929.78
2016-12-08T05:52:35.997Z,929.73
2016-12-08T05:53:46.434Z,929.76
2016-12-08T05:54:56.899Z,929.71
2016-12-08T05:56:07.339Z,929.69
2016-12-08T05:57:17.778Z,929.72
2016-12-08T05:58:28.411Z,929.7
2016-12-08T05:59:38.846Z,929.68
2016-12-08T06:00:49.280Z,929.65
2016-12-08T06:01:59.715Z,929.65
2016-12-08T06:03:10.151Z,929.67
2016-12-08T06:04:20.589Z,929.66
2016-12-08T06:05:31.031Z,929.66
2016-12-08T06:06:41.958Z,929.64
2016-12-08T06:07:52.388Z,929.65
2016-12-08T06:09:02.821Z,929.66
2016-12-08T06:10:13.466Z,929.64
2016-12-08T06:11:38.446Z,929.59
2016-12-08T06:12:48.887Z,929.57
2016-12-08T06:14:13.853Z,929.58
2016-12-08T06:15:24.207Z,929.56
2016-12-08T06:16:34.575Z,929.52
2016-12-08T06:17:44.905Z,929.54
2016-12-08T06:19:09.812Z,929.54
2016-12-08T06:20:20.197Z,929.58
2016-12-08T06:21:30.550Z,929.6
2016-12-08T06:22:40.889Z,929.6
2016-12-08T06:23:51.239Z,929.58
2016-12-08T06:25:01.582Z,929.58
2016-12-08T06:26:12.120Z,929.55
2016-12-08T06:27:22.451Z,929.56
2016-12-08T06:28:32.826Z,929.59
2016-12-08T06:29:43.166Z,929.62
2016-12-08T06:30:53.507Z,929.66
2016-12-08T06:32:04.072Z,929.68
2016-12-08T06:33:28.979Z,929.69
2016-12-08T06:34:39.308Z,929.68
2016-12-08T06:35:49.712Z,929.65
2016-12-08T06:37:00.075Z,929.66
2016-12-08T06:38:10.631Z,929.61
2016-12-08T06:39:21.043Z,929.61
2016-12-08T06:40:31.382Z,929.57
2016-12-08T06:41:41.744Z,929.55
2016-12-08T06:42:52.341Z,929.53
2016-12-08T06:44:02.738Z,929.5
2016-12-08T06:45:13.065Z,929.53
2016-12-08T06:46:23.427Z,929.44
2016-12-08T06:47:33.802Z,929.47
2016-12-08T06:48:44.365Z,929.47
2016-12-08T06:49:54.758Z,929.47
2016-12-08T06:51:05.134Z,929.46
2016-12-08T06:52:30.019Z,929.44
2016-12-08T06:53:40.427Z,929.41
2016-12-08T06:54:50.995Z,929.34
2016-12-08T06:56:01.351Z,929.31
2016-12-08T06:57:11.745Z,929.33
2016-12-08T06:58:22.131Z,929.34
2016-12-08T06:59:32.492Z,929.31
2016-12-08T07:00:42.901Z,929.31
2016-12-08T07:01:53.278Z,929.31
2016-12-08T07:03:03.700Z,929.28
2016-12-08T07:04:14.064Z,929.28
2016-12-08T07:06:49.280Z,929.27
2016-12-08T07:07:59.622Z,929.27
2016-12-08T07:09:09.965Z,929.22
2016-12-08T07:10:20.332Z,929.23
2016-12-08T07:11:45.254Z,929.24
2016-12-08T07:12:55.607Z,929.26
2016-12-08T07:15:30.843Z,929.27
2016-12-08T07:16:41.181Z,929.3
2016-12-08T07:17:51.534Z,929.28
2016-12-08T07:19:01.933Z,929.25
2016-12-08T07:20:26.861Z,929.24
2016-12-08T07:21:37.468Z,929.28
2016-12-08T07:22:47.863Z,929.26
2016-12-08T07:23:58.277Z,929.31
2016-12-08T07:25:08.716Z,929.32
2016-12-08T07:26:19.064Z,929.28
2016-12-08T07:27:29.445Z,929.3
2016-12-08T07:28:39.836Z,929.32
2016-12-08T07:29:50.275Z,929.34
2016-12-08T07:31:01.129Z,929.39
2016-12-08T07:32:11.768Z,929.44
2016-12-08T07:33:22.206Z,929.48
2016-12-08T07:34:32.645Z,929.49
2016-12-08T07:35:43.083Z,929.5
2016-12-08T07:36:53.523Z,929.52
2016-12-08T07:38:04.647Z,929.58
2016-12-08T07:39:14.996Z,929.58
2016-12-08T07:40:25.314Z,929.58
2016-12-08T07:41:50.204Z,929.59
2016-12-08T07:43:00.530Z,929.61
2016-12-08T07:44:11.045Z,929.63
2016-12-08T07:45:21.408Z,929.63
2016-12-08T07:46:31.818Z,929.66
2016-12-08T07:47:42.228Z,929.65
2016-12-08T07:48:52.836Z,929.69
2016-12-08T07:50:03.246Z,929.71
2016-12-08T07:51:13.657Z,929.69
2016-12-08T07:52:24.070Z,929.71
2016-12-08T07:53:34.478Z,929.71
2016-12-08T07:54:45.082Z,929.74
2016-12-08T07:55:55.491Z,929.83
2016-12-08T07:57:05.899Z,929.8
2016-12-08T07:58:30.856Z,929.82
2016-12-08T07:59:55.812Z,929.81
2016-12-08T08:01:20.778Z,929.84
2016-12-08T08:02:31.187Z,929.84
2016-12-08T08:03:41.595Z,929.82
2016-12-08T08:04:52.005Z,929.83
2016-12-08T08:06:02.613Z,929.82
2016-12-08T08:07:13.023Z,929.82
2016-12-08T08:08:23.430Z,929.83
2016-12-08T08:09:33.840Z,929.85
2016-12-08T08:10:44.246Z,929.88
2016-12-08T08:11:54.655Z,929.92
2016-12-08T08:13:05.060Z,929.91
2016-12-08T08:14:15.473Z,929.93
2016-12-08T08:15:25.881Z,929.97
2016-12-08T08:16:36.487Z,929.96
2016-12-08T08:17:46.898Z,930
2016-12-08T08:18:57.307Z,930
2016-12-08T08:20:07.716Z,930.06
2016-12-08T08:21:18.120Z,930.09
2016-12-08T08:22:28.529Z,930.12
2016-12-08T08:25:03.898Z,930.17
2016-12-08T08:26:14.310Z,930.22
2016-12-08T08:27:24.717Z,930.21
2016-12-08T08:28:35.124Z,930.18
2016-12-08T08:29:45.536Z,930.2
2016-12-08T08:30:55.932Z,930.18
2016-12-08T08:32:06.255Z,930.18
2016-12-08T08:33:17.257Z,930.21
2016-12-08T08:34:27.571Z,930.19
2016-12-08T08:35:37.887Z,930.22
2016-12-08T08:36:48.205Z,930.2
2016-12-08T08:37:58.526Z,930.21
2016-12-08T08:39:09.047Z,930.22
2016-12-08T08:40:19.363Z,930.27
2016-12-08T08:41:29.680Z,930.28
2016-12-08T08:42:40.003Z,930.26
2016-12-08T08:43:50.328Z,930.25
2016-12-08T08:45:00.671Z,930.25
2016-12-08T08:46:10.989Z,930.22
2016-12-08T08:47:21.308Z,930.27
2016-12-08T08:48:31.626Z,930.28
2016-12-08T08:49:41.959Z,930.29
2016-12-08T08:50:52.751Z,930.27
2016-12-08T08:52:03.069Z,930.28
2016-12-08T08:53:13.388Z,930.28
2016-12-08T08:54:23.704Z,930.27
2016-12-08T08:55:34.020Z,930.25
2016-12-08T08:56:44.336Z,930.27
2016-12-08T08:59:34.109Z,930.31
2016-12-08T09:02:09.510Z,930.3
2016-12-08T09:03:19.826Z,930.26
2016-12-08T09:04:30.144Z,930.25
2016-12-08T09:05:40.459Z,930.27
2016-12-08T09:06:50.778Z,930.28
2016-12-08T09:08:01.298Z,930.34
2016-12-08T09:09:11.622Z,930.37
2016-12-08T09:10:21.941Z,930.37
2016-12-08T09:11:32.258Z,930.36
2016-12-08T09:12:42.574Z,930.34
2016-12-08T09:13:52.889Z,930.36
2016-12-08T09:15:03.207Z,930.4
2016-12-08T09:16:13.562Z,930.41
2016-12-08T09:17:23.977Z,930.41
2016-12-08T09:18:34.385Z,930.43
2016-12-08T09:19:44.989Z,930.42
2016-12-08T09:20:55.429Z,930.46
2016-12-08T09:22:05.835Z,930.39
2016-12-08T09:23:30.792Z,930.39
2016-12-08T09:24:41.201Z,930.44
2016-12-08T09:25:51.810Z,930.43
2016-12-08T09:27:02.704Z,930.46
2016-12-08T09:28:13.110Z,930.49
2016-12-08T09:29:23.517Z,930.51
2016-12-08T09:30:33.928Z,930.51
2016-12-08T09:31:44.335Z,930.49
2016-12-08T09:32:55.262Z,930.51
2016-12-08T09:34:05.683Z,930.5
2016-12-08T09:35:16.090Z,930.51
2016-12-08T09:36:26.709Z,930.48
2016-12-08T09:37:37.120Z,930.54
2016-12-08T09:38:47.531Z,930.53
2016-12-08T09:39:57.940Z,930.55
2016-12-08T09:41:08.349Z,930.6
2016-12-08T09:42:18.957Z,930.61
2016-12-08T09:43:29.367Z,930.58
2016-12-08T09:44:39.776Z,930.57
2016-12-08T09:45:50.182Z,930.57
2016-12-08T09:47:01.076Z,930.64
2016-12-08T09:48:11.685Z,930.63
2016-12-08T09:49:22.127Z,930.62
2016-12-08T09:50:32.541Z,930.6
2016-12-08T09:51:42.947Z,930.63
2016-12-08T09:52:53.359Z,930.69
2016-12-08T09:54:03.767Z,930.7
2016-12-08T09:55:14.179Z,930.72
2016-12-08T09:56:24.587Z,930.75
2016-12-08T09:57:34.992Z,930.74
2016-12-08T09:58:45.416Z,930.76
2016-12-08T09:59:56.142Z,930.76
2016-12-08T10:01:06.654Z,930.75
2016-12-08T10:02:17.093Z,930.8
2016-12-08T10:03:27.527Z,930.78
2016-12-08T10:04:37.964Z,930.76
2016-12-08T10:05:48.603Z,930.81
2016-12-08T10:06:59.044Z,930.84
2016-12-08T10:08:09.481Z,930.88
2016-12-08T10:09:19.919Z,930.89
2016-12-08T10:10:30.356Z,930.86
2016-12-08T10:11:40.993Z,930.9
2016-12-08T10:12:51.923Z,930.9
2016-12-08T10:14:02.846Z,930.88
2016-12-08T10:15:13.314Z,930.92
2016-12-08T10:16:23.756Z,930.9
2016-12-08T10:17:34.392Z,930.9
2016-12-08T10:18:44.832Z,930.93
2016-12-08T10:19:55.269Z,930.94
2016-12-08T10:21:06.214Z,930.92
2016-12-08T10:22:16.681Z,930.94
2016-12-08T10:23:27.609Z,930.97
2016-12-08T10:24:38.077Z,930.98
2016-12-08T10:27:13.498Z,930.95
2016-12-08T10:28:38.479Z,930.96
2016-12-08T10:29:48.916Z,930.91
2016-12-08T10:30:59.363Z,930.95
2016-12-08T10:32:09.801Z,930.96
2016-12-08T10:33:20.240Z,930.95
2016-12-08T10:34:30.776Z,930.93
2016-12-08T10:35:41.518Z,930.91
2016-12-08T10:36:51.839Z,930.92
2016-12-08T10:38:02.166Z,930.86
2016-12-08T10:39:12.489Z,930.92
2016-12-08T10:40:22.807Z,930.91
2016-12-08T10:41:33.124Z,930.9
2016-12-08T10:42:43.456Z,930.9
2016-12-08T10:43:53.777Z,930.93
2016-12-08T10:45:04.097Z,930.89
2016-12-08T10:46:14.615Z,930.88
2016-12-08T10:47:24.939Z,930.88
2016-12-08T10:48:35.260Z,930.87
2016-12-08T10:49:45.576Z,930.91
2016-12-08T10:50:55.901Z,930.86
2016-12-08T10:52:06.420Z,930.81
2016-12-08T10:53:16.738Z,930.83
2016-12-08T10:54:27.056Z,930.79
2016-12-08T10:55:37.376Z,930.75
2016-12-08T10:56:47.724Z,930.74
2016-12-08T10:57:58.043Z,930.72
2016-12-08T10:59:08.359Z,930.75
2016-12-08T11:00:18.676Z,930.77
2016-12-08T11:01:28.996Z,930.77
2016-12-08T11:02:39.322Z,930.8
2016-12-08T11:03:49.640Z,930.8
2016-12-08T11:04:59.964Z,930.8
2016-12-08T11:06:10.282Z,930.8
2016-12-08T11:07:20.601Z,930.85
2016-12-08T11:08:30.926Z,930.85
2016-12-08T11:09:41.259Z,930.84
2016-12-08T11:10:51.695Z,930.85
2016-12-08T11:12:02.128Z,930.87
2016-12-08T11:13:12.567Z,930.88
2016-12-08T11:14:23.009Z,930.88
2016-12-08T11:15:33.651Z,930.87
2016-12-08T11:16:44.087Z,930.89
2016-12-08T11:17:54.533Z,930.85
2016-12-08T11:19:04.974Z,930.84
2016-12-08T11:20:15.407Z,930.81
2016-12-08T11:21:26.041Z,930.81
2016-12-08T11:22:51.249Z,930.78
2016-12-08T11:24:02.200Z,930.77
2016-12-08T11:25:12.633Z,930.77
2016-12-08T11:26:23.067Z,930.76
2016-12-08T11:27:33.702Z,930.74
2016-12-08T11:28:44.136Z,930.76
2016-12-08T11:29:54.571Z,930.74
2016-12-08T11:31:05.082Z,930.78
2016-12-08T11:32:15.822Z,930.8
2016-12-08T11:33:26.353Z,930.84
2016-12-08T11:34:36.880Z,930.82
2016-12-08T11:35:47.412Z,930.8
2016-12-08T11:36:57.938Z,930.81
2016-12-08T11:38:22.996Z,930.81
2016-12-08T11:39:33.527Z,930.78
2016-12-08T11:40:58.584Z,930.79
2016-12-08T11:42:09.117Z,930.74
2016-12-08T11:43:34.379Z,930.77
2016-12-08T11:44:44.911Z,930.7
2016-12-08T11:45:55.445Z,930.68
2016-12-08T11:47:05.976Z,930.66
2016-12-08T11:48:16.507Z,930.65
2016-12-08T11:49:27.238Z,930.63
2016-12-08T11:50:37.769Z,930.63
2016-12-08T11:51:48.303Z,930.64
2016-12-08T11:52:58.838Z,930.67
2016-12-08T11:54:09.890Z,930.63
2016-12-08T11:55:20.621Z,930.63
2016-12-08T11:56:31.189Z,930.7
2016-12-08T11:57:41.724Z,930.71
2016-12-08T11:58:52.254Z,930.71
2016-12-08T12:00:02.785Z,930.67
2016-12-08T12:01:13.516Z,930.72
2016-12-08T12:02:38.581Z,930.68
2016-12-08T12:03:49.111Z,930.65
2016-12-08T12:04:59.644Z,930.65
2016-12-08T12:06:10.680Z,930.63
2016-12-08T12:07:21.417Z,930.59
2016-12-08T12:08:31.974Z,930.64
2016-12-08T12:09:42.506Z,930.68
2016-12-08T12:10:53.040Z,930.68
2016-12-08T12:12:18.301Z,930.67
2016-12-08T12:13:28.831Z,930.69
2016-12-08T12:14:39.368Z,930.7
2016-12-08T12:15:49.878Z,930.68
2016-12-08T12:17:00.329Z,930.65
2016-12-08T12:18:10.766Z,930.66
2016-12-08T12:19:21.211Z,930.63
2016-12-08T12:21:56.642Z,930.64
2016-12-08T12:23:07.576Z,930.62
2016-12-08T12:24:32.763Z,930.64
2016-12-08T12:28:47.922Z,930.57
2016-12-08T12:29:58.368Z,930.54
2016-12-08T12:31:08.806Z,930.54
2016-12-08T12:32:33.789Z,930.51
2016-12-08T12:33:44.229Z,930.5
2016-12-08T12:34:54.666Z,930.5
2016-12-08T12:36:05.112Z,930.48
2016-12-08T12:38:55.779Z,930.43
2016-12-08T12:40:06.719Z,930.48
2016-12-08T12:41:17.164Z,930.47
2016-12-08T12:42:27.606Z,930.48
2016-12-08T12:43:38.537Z,930.49
2016-12-08T12:44:49.176Z,930.52
2016-12-08T12:46:14.161Z,930.53
2016-12-08T12:47:24.599Z,930.57
2016-12-08T12:48:35.048Z,930.56
2016-12-08T12:49:45.705Z,930.56
2016-12-08T12:50:56.841Z,930.58
2016-12-08T12:52:07.427Z,930.51
2016-12-08T12:53:32.428Z,930.55
2016-12-08T12:54:42.758Z,930.44
2016-12-08T12:55:53.280Z,930.41
2016-12-08T12:57:04.211Z,930.41
2016-12-08T12:58:14.531Z,930.47
2016-12-08T12:59:24.873Z,930.47
2016-12-08T13:00:35.396Z,930.46
2016-12-08T13:01:45.720Z,930.44
2016-12-08T13:02:56.548Z,930.45
2016-12-08T13:04:21.445Z,930.43
2016-12-08T13:05:31.778Z,930.42
2016-12-08T13:06:42.302Z,930.45
2016-12-08T13:07:52.626Z,930.47
2016-12-08T13:09:02.959Z,930.47
2016-12-08T13:10:13.283Z,930.47
2016-12-08T13:11:23.833Z,930.51
2016-12-08T13:12:34.159Z,930.47
2016-12-08T13:13:44.483Z,930.54
2016-12-08T13:14:54.809Z,930.53
2016-12-08T13:16:05.132Z,930.54
2016-12-08T13:17:15.656Z,930.5
2016-12-08T13:18:25.980Z,930.5
2016-12-08T13:19:36.339Z,930.51
2016-12-08T13:20:46.830Z,930.53
2016-12-08T13:21:57.157Z,930.58
2016-12-08T13:23:08.157Z,930.53
2016-12-08T13:28:35.707Z,930.48
2016-12-08T13:29:46.035Z,930.46
2016-12-08T13:30:56.376Z,930.46
2016-12-08T13:32:06.707Z,930.47
2016-12-08T13:33:17.035Z,930.42
2016-12-08T13:34:27.562Z,930.49
2016-12-08T13:35:37.892Z,930.44
2016-12-08T13:37:02.788Z,930.41
2016-12-08T13:38:13.114Z,930.37
2016-12-08T13:39:23.436Z,930.44
2016-12-08T13:40:33.798Z,930.34
2016-12-08T13:41:44.126Z,930.41
2016-12-08T13:42:54.452Z,930.41
2016-12-08T13:44:04.781Z,930.35
2016-12-08T13:45:15.104Z,930.33
2016-12-08T13:46:40.483Z,930.32
2016-12-08T13:47:50.806Z,930.29
2016-12-08T13:49:01.603Z,930.21
2016-12-08T13:50:26.702Z,930.27
2016-12-08T13:51:37.028Z,930.23
2016-12-08T13:52:47.355Z,930.16
2016-12-08T13:54:12.248Z,930.19
2016-12-08T13:55:23.543Z,930.17
2016-12-08T13:56:34.070Z,930.16
2016-12-08T13:57:58.967Z,930.14
2016-12-08T13:59:09.770Z,930.15
2016-12-08T14:00:20.576Z,930.13
2016-12-08T14:01:31.099Z,930.12
2016-12-08T14:02:55.996Z,930.09
2016-12-08T14:04:06.811Z,930.07
2016-12-08T14:05:17.146Z,930.07
2016-12-08T14:06:42.253Z,930.07
2016-12-08T14:07:52.592Z,930.07
2016-12-08T14:09:02.932Z,929.96
2016-12-08T14:10:27.848Z,930.06
2016-12-08T14:11:38.388Z,929.97
2016-12-08T14:12:49.211Z,929.93
2016-12-08T14:13:59.548Z,929.92
2016-12-08T15:18:39.444Z,929.18
2016-12-08T15:19:50.003Z,929.19
2016-12-08T15:21:00.564Z,929.14
2016-12-08T15:22:11.118Z,929.15
2016-12-08T15:23:21.679Z,929.14
2016-12-08T15:24:32.737Z,929.08
2016-12-08T15:25:43.295Z,929.09
2016-12-08T15:26:54.365Z,929.07
2016-12-08T15:28:04.945Z,929.06
2016-12-08T15:29:15.501Z,928.99
2016-12-08T15:31:51.147Z,929.04
2016-12-08T15:33:01.691Z,928.97
2016-12-08T15:34:12.238Z,928.99
2016-12-08T15:35:22.799Z,928.99
2016-12-08T15:36:33.570Z,928.98
2016-12-08T15:37:44.133Z,929
2016-12-08T15:38:54.715Z,929.02
2016-12-08T15:40:05.274Z,929.02
2016-12-08T15:41:16.059Z,929
2016-12-08T15:42:26.648Z,928.98
2016-12-08T15:46:27.481Z,928.94
2016-12-08T15:47:38.066Z,928.99
2016-12-08T15:48:48.823Z,928.92
2016-12-08T15:52:30.068Z,928.95
2016-12-08T15:53:40.634Z,928.9
2016-12-08T15:54:51.219Z,928.92
2016-12-08T15:56:01.801Z,928.81
2016-12-08T15:58:51.990Z,928.76
2016-12-08T16:00:03.030Z,928.72
2016-12-08T16:01:14.040Z,928.75
2016-12-08T16:02:24.503Z,928.79
2016-12-08T16:03:49.620Z,928.79
2016-12-08T16:05:00.087Z,928.69
2016-12-08T16:06:10.561Z,928.66
2016-12-08T16:07:21.026Z,928.73
2016-12-08T16:08:31.579Z,928.64
2016-12-08T16:09:42.031Z,928.72
2016-12-08T16:10:52.490Z,928.72
2016-12-08T16:12:02.988Z,928.73
2016-12-08T16:13:13.478Z,928.73
2016-12-08T16:14:38.598Z,928.7
2016-12-08T16:16:03.629Z,928.64
2016-12-08T16:17:14.102Z,928.63
2016-12-08T16:18:24.587Z,928.61
2016-12-08T16:19:49.695Z,928.58
2016-12-08T16:21:00.185Z,928.51
2016-12-08T16:22:10.655Z,928.52
2016-12-08T16:23:21.127Z,928.52
2016-12-08T16:24:46.244Z,928.49
2016-12-08T16:25:56.722Z,928.52
2016-12-08T16:27:07.697Z,928.5
2016-12-08T16:28:18.156Z,928.45
2016-12-08T16:29:28.725Z,928.45
2016-12-08T16:30:39.200Z,928.42
2016-12-08T16:31:49.678Z,928.38
2016-12-08T16:33:00.155Z,928.39